Time;durP1;ratioP1;P1;durP2;ratioP2;P2;SDS_P1;SDS_P2;PMS_P1;PMS_P2;Temp;Humidity;BMP_temperature;BMP_pressure;BME280_temperature;BME280_humidity;BME280_pressure;Samples;Min_cycle;Max_cycle;Signal;HPM_P1;HPM_P2
2022/11/05 00:10:28;;;;;;;6.25;2.50;;;;;;;6.93;100.00;97967.56;15276560;19;20383;-64
2022/11/05 00:27:10;;;;;;;6.68;2.65;;;;;;;6.95;100.00;97984.34;15276248;19;20035;-64
2022/11/05 00:32:38;;;;;;;4.35;2.50;;;;;;;6.93;100.00;97984.50;15266063;19;20026;-64
2022/11/05 00:38:02;;;;;;;5.13;2.50;;;;;;;6.95;100.00;98000.41;15273681;19;20022;-64
2022/11/05 00:54:53;;;;;;;4.35;2.45;;;;;;;6.88;100.00;98012.72;15269212;19;20013;-63
2022/11/05 01:00:19;;;;;;;6.35;2.67;;;;;;;6.88;100.00;98013.53;15271192;19;20014;-64
2022/11/05 01:05:51;;;;;;;5.18;2.53;;;;;;;6.90;100.00;98016.06;15273981;19;20007;-64
2022/11/05 01:11:31;;;;;;;6.23;2.70;;;;;;;6.91;100.00;98023.13;15270345;19;20021;-64
2022/11/05 01:16:56;;;;;;;5.40;2.60;;;;;;;6.92;100.00;98019.44;15273224;19;20022;-63
2022/11/05 01:22:23;;;;;;;5.15;2.55;;;;;;;6.91;100.00;98017.75;15268654;19;20028;-64
2022/11/05 01:27:48;;;;;;;6.60;2.65;;;;;;;6.89;100.00;98030.44;15269400;19;20400;-61
2022/11/05 01:33:12;;;;;;;5.35;2.58;;;;;;;6.83;100.00;98039.91;15261286;19;20375;-63
2022/11/05 01:38:40;;;;;;;6.25;2.88;;;;;;;6.77;100.00;98038.66;15271614;19;20090;-63
2022/11/05 01:44:04;;;;;;;4.70;2.58;;;;;;;6.71;100.00;98049.97;15266365;19;20108;-65
2022/11/05 01:49:37;;;;;;;5.40;2.88;;;;;;;6.62;100.00;98057.03;15270465;19;20015;-63
2022/11/05 01:55:06;;;;;;;6.30;2.75;;;;;;;6.54;100.00;98070.31;15264568;19;20026;-61
2022/11/05 02:00:30;;;;;;;6.70;2.90;;;;;;;6.47;100.00;98070.03;15270176;19;20022;-64
2022/11/05 02:05:57;;;;;;;6.25;3.00;;;;;;;6.45;100.00;98072.00;15263610;19;20030;-62
2022/11/05 02:11:26;;;;;;;8.30;3.33;;;;;;;6.43;100.00;98086.53;15273692;19;20459;-63
2022/11/05 02:16:59;;;;;;;4.63;2.70;;;;;;;6.42;100.00;98082.16;15284629;19;20040;-64
2022/11/05 02:22:49;;;;;;;6.78;3.17;;;;;;;6.41;100.00;98085.81;15280367;19;20038;-63
2022/11/05 02:28:44;;;;;;;5.10;3.17;;;;;;;6.37;100.00;98101.31;15279645;19;21120;-62
2022/11/05 02:34:23;;;;;;;8.13;3.30;;;;;;;6.33;100.00;98099.91;15278945;19;20027;-63
2022/11/05 02:39:54;;;;;;;6.88;3.47;;;;;;;6.29;100.00;98109.22;15278148;19;20042;-62
2022/11/05 02:45:29;;;;;;;6.32;3.58;;;;;;;6.24;100.00;98106.13;15282388;19;20019;-63
2022/11/05 02:51:04;;;;;;;8.90;3.85;;;;;;;6.19;100.00;98101.19;15281746;19;20365;-63
2022/11/05 02:56:33;;;;;;;7.20;3.90;;;;;;;6.17;100.00;98092.47;15278671;19;20055;-63
2022/11/05 03:02:00;;;;;;;8.02;3.20;;;;;;;6.13;100.00;98109.75;15278984;19;20015;-64
2022/11/05 03:07:41;;;;;;;6.28;2.97;;;;;;;6.06;100.00;98109.47;15281109;19;20472;-64
2022/11/05 03:13:18;;;;;;;6.27;2.70;;;;;;;6.01;100.00;98114.41;15271598;19;20042;-63
2022/11/05 03:18:51;;;;;;;6.40;3.10;;;;;;;5.95;100.00;98117.59;15277478;19;20018;-64
2022/11/05 03:24:23;;;;;;;5.30;3.03;;;;;;;5.91;100.00;98121.56;15273299;19;20022;-64
2022/11/05 03:29:51;;;;;;;5.27;2.97;;;;;;;5.88;100.00;98127.19;15279184;19;20372;-65
2022/11/05 03:35:20;;;;;;;7.70;3.17;;;;;;;5.85;100.00;98139.00;15274003;19;20034;-62
2022/11/05 03:40:49;;;;;;;6.20;3.20;;;;;;;5.83;100.00;98147.13;15277733;19;20019;-62
2022/11/05 03:46:19;;;;;;;7.88;3.60;;;;;;;5.81;100.00;98158.97;15272699;19;20037;-62
2022/11/05 03:51:50;;;;;;;8.05;4.15;;;;;;;5.79;100.00;98161.78;15273842;19;20023;-60
2022/11/05 03:57:22;;;;;;;9.87;5.40;;;;;;;5.79;100.00;98172.47;15274597;19;20014;-62
2022/11/05 04:02:47;;;;;;;10.77;6.65;;;;;;;5.83;100.00;98181.06;15274797;19;20038;-62
2022/11/05 04:13:51;;;;;;;7.38;4.88;;;;;;;5.81;100.00;98197.25;15271954;19;20029;-63
2022/11/05 04:24:07;;;;;;;9.25;4.40;;;;;;;5.78;100.00;98196.66;15272316;19;20028;-63
2022/11/05 04:25:00;;;;;;;6.10;4.07;;;;;;;5.75;100.00;98197.78;15272768;19;20526;-62
2022/11/05 04:30:27;;;;;;;7.47;4.55;;;;;;;5.70;100.00;98200.88;15275040;19;20021;-62
2022/11/05 04:35:54;;;;;;;9.13;5.18;;;;;;;5.68;100.00;98207.34;15269841;19;20743;-63
2022/11/05 04:41:19;;;;;;;8.27;5.00;;;;;;;5.65;100.00;98207.59;15274070;19;20018;-62
2022/11/05 04:46:46;;;;;;;9.73;5.65;;;;;;;5.60;100.00;98210.69;15272589;19;20015;-61
2022/11/05 04:52:11;;;;;;;8.90;6.35;;;;;;;5.60;100.00;98215.16;15271494;19;20791;-61
2022/11/05 04:57:43;;;;;;;9.52;6.90;;;;;;;5.60;100.00;98229.38;15272304;19;20013;-62
2022/11/05 05:03:10;;;;;;;11.90;7.28;;;;;;;5.61;100.00;98227.53;15271789;19;20021;-61
2022/11/05 05:08:34;;;;;;;13.43;7.90;;;;;;;5.61;100.00;98244.44;15268060;19;20031;-62
2022/11/05 05:13:59;;;;;;;11.18;7.75;;;;;;;5.65;100.00;98245.00;15269492;19;20452;-63
2022/11/05 05:19:26;;;;;;;10.95;7.13;;;;;;;5.64;100.00;98246.00;15264489;19;20018;-62
2022/11/05 05:24:51;;;;;;;9.80;6.82;;;;;;;5.65;100.00;98253.03;15272189;19;20011;-63
2022/11/05 05:30:17;;;;;;;8.70;5.53;;;;;;;5.62;100.00;98247.94;15271643;19;20018;-63
2022/11/05 05:35:44;;;;;;;7.47;5.53;;;;;;;5.58;100.00;98252.72;15266081;19;20641;-63
2022/11/05 05:41:09;;;;;;;9.55;5.63;;;;;;;5.53;100.00;98261.13;15265759;19;20015;-60
2022/11/05 05:46:34;;;;;;;5.95;5.30;;;;;;;5.48;100.00;98265.19;15269507;19;20022;-62
2022/11/05 05:52:01;;;;;;;7.32;5.55;;;;;;;5.40;100.00;98276.53;15258590;19;20030;-57
2022/11/05 05:57:26;;;;;;;8.18;5.45;;;;;;;5.37;100.00;98272.31;15257355;19;20023;-57
2022/11/05 06:02:51;;;;;;;9.07;6.30;;;;;;;5.31;100.00;98286.19;15265099;19;20058;-57
2022/11/05 06:08:18;;;;;;;10.73;5.90;;;;;;;5.24;100.00;98285.84;15269161;19;20017;-56
2022/11/05 06:13:44;;;;;;;10.65;6.50;;;;;;;5.18;100.00;98297.06;15264705;19;20082;-57
2022/11/05 06:19:09;;;;;;;11.25;6.85;;;;;;;5.15;100.00;98308.00;15267830;19;20010;-56
2022/11/05 06:24:36;;;;;;;12.93;7.07;;;;;;;5.11;100.00;98308.41;15260213;19;20043;-57
2022/11/05 06:30:02;;;;;;;11.50;7.65;;;;;;;5.08;100.00;98320.19;15267243;19;20018;-56
2022/11/05 06:35:26;;;;;;;11.02;7.55;;;;;;;5.05;100.00;98337.31;15262256;19;20015;-52
2022/11/05 06:40:53;;;;;;;16.75;10.30;;;;;;;5.06;100.00;98346.16;15264704;19;20039;-57
2022/11/05 06:46:25;;;;;;;15.10;10.30;;;;;;;5.08;100.00;98355.75;15262212;19;20022;-56
2022/11/05 06:51:50;;;;;;;15.02;10.25;;;;;;;5.11;100.00;98380.50;15266380;19;20023;-56
2022/11/05 06:57:24;;;;;;;18.67;11.43;;;;;;;5.14;100.00;98397.09;15268562;19;20018;-56
2022/11/05 07:02:49;;;;;;;16.17;11.43;;;;;;;5.19;100.00;98399.41;15277883;19;20528;-57
2022/11/05 07:08:14;;;;;;;21.30;13.15;;;;;;;5.24;100.00;98411.38;15278590;19;20082;-57
2022/11/05 07:13:41;;;;;;;21.98;14.63;;;;;;;5.30;100.00;98411.88;15275965;19;20264;-57
2022/11/05 07:19:06;;;;;;;24.23;15.13;;;;;;;5.33;100.00;98430.31;15275998;19;20010;-57
2022/11/05 07:24:30;;;;;;;19.38;13.70;;;;;;;5.36;100.00;98444.25;15275552;19;20018;-57
2022/11/05 07:29:58;;;;;;;17.63;12.77;;;;;;;5.39;100.00;98453.84;15274662;19;20620;-57
2022/11/05 07:35:23;;;;;;;15.02;11.10;;;;;;;5.44;100.00;98457.00;15266063;19;20022;-56
2022/11/05 07:40:47;;;;;;;14.13;9.88;;;;;;;5.45;100.00;98456.00;15273354;19;20021;-53
2022/11/05 07:46:14;;;;;;;15.20;10.45;;;;;;;5.51;100.00;98457.31;15269662;19;20025;-52
2022/11/05 07:51:38;;;;;;;15.88;10.90;;;;;;;5.58;100.00;98463.00;15268001;19;20472;-58
2022/11/05 07:57:09;;;;;;;21.98;12.27;;;;;;;5.67;100.00;98457.72;15268373;19;20014;-57
2022/11/05 08:02:37;;;;;;;17.17;11.20;;;;;;;5.78;100.00;98464.84;15266605;19;20011;-54
2022/11/05 08:08:02;;;;;;;17.95;11.05;;;;;;;5.86;100.00;98473.06;15269888;19;20018;-52
2022/11/05 08:13:27;;;;;;;16.23;11.40;;;;;;;5.99;100.00;98488.06;15270935;19;20284;-54
2022/11/05 08:18:54;;;;;;;16.00;11.10;;;;;;;6.09;100.00;98499.69;15268387;19;20025;-56
2022/11/05 08:24:19;;;;;;;14.50;10.10;;;;;;;6.17;100.00;98497.22;15268915;19;20018;-56
2022/11/05 08:29:44;;;;;;;17.27;10.55;;;;;;;6.25;100.00;98506.41;15271024;19;20018;-54
2022/11/05 08:35:12;;;;;;;16.10;10.25;;;;;;;6.32;100.00;98512.94;15263136;19;20019;-56
2022/11/05 08:40:39;;;;;;;13.98;9.98;;;;;;;6.41;100.00;98525.50;15269706;19;20363;-58
2022/11/05 08:46:04;;;;;;;15.75;10.80;;;;;;;6.59;100.00;98533.78;15265031;19;20014;-57
2022/11/05 08:51:32;;;;;;;14.70;10.48;;;;;;;6.89;100.00;98544.63;15269033;19;20531;-58
2022/11/05 08:57:03;;;;;;;11.38;7.72;;;;;;;7.18;100.00;98557.28;15267145;19;20021;-56
2022/11/05 09:02:28;;;;;;;9.77;6.37;;;;;;;7.32;100.00;98535.47;15268198;19;20019;-58
2022/11/05 09:07:55;;;;;;;10.32;6.30;;;;;;;7.47;100.00;98537.72;15263288;19;20670;-57
2022/11/05 09:13:20;;;;;;;9.73;5.38;;;;;;;7.55;100.00;98517.28;15267693;19;20017;-56
2022/11/05 09:18:44;;;;;;;12.02;5.85;;;;;;;7.68;100.00;98518.84;15263901;19;20063;-57
2022/11/05 09:24:12;;;;;;;8.27;4.15;;;;;;;7.84;100.00;98516.47;15267748;19;20512;-57
2022/11/05 09:29:36;;;;;;;10.05;3.95;;;;;;;8.12;100.00;98505.00;15265621;19;20018;-56
2022/11/05 09:35:01;;;;;;;8.18;4.00;;;;;;;8.35;100.00;98504.66;15262541;19;20018;-56
2022/11/05 09:40:29;;;;;;;9.07;3.33;;;;;;;8.46;100.00;98501.81;15260738;19;20018;-57
2022/11/05 09:46:00;;;;;;;10.25;3.40;;;;;;;8.68;100.00;98497.09;15261889;19;20011;-54
2022/11/05 09:51:25;;;;;;;9.13;3.30;;;;;;;8.81;100.00;98497.63;15264830;19;20061;-55
2022/11/05 09:57:00;;;;;;;6.97;2.67;;;;;;;8.78;100.00;98495.22;15261673;19;20031;-53
2022/11/05 10:02:30;;;;;;;6.40;2.22;;;;;;;8.82;100.00;98493.94;15264443;19;20521;-51
2022/11/05 10:07:58;;;;;;;6.10;2.35;;;;;;;8.97;100.00;98509.56;15267695;19;20074;-51
2022/11/05 10:13:38;;;;;;;7.25;2.63;;;;;;;9.00;100.00;98503.88;15286075;19;20014;-54
2022/11/05 10:19:12;;;;;;;8.10;2.50;;;;;;;8.99;100.00;98504.91;15268238;19;20060;-53
2022/11/05 10:24:38;;;;;;;7.00;2.33;;;;;;;9.21;100.00;98517.06;15263802;19;20484;-49
2022/11/05 10:30:05;;;;;;;6.82;2.45;;;;;;;9.36;100.00;98514.72;15267860;19;20230;-48
2022/11/05 10:35:32;;;;;;;5.13;1.52;;;;;;;9.24;100.00;98506.03;15276511;19;20019;-55
2022/11/05 10:41:13;;;;;;;5.47;1.70;;;;;;;9.15;100.00;98498.88;15282374;19;20578;-55
2022/11/05 10:46:47;;;;;;;5.25;1.73;;;;;;;9.25;100.00;98503.19;15271743;19;20492;-57
2022/11/05 10:52:28;;;;;;;6.70;1.95;;;;;;;9.45;100.00;98503.06;15277007;19;20051;-57
2022/11/05 10:57:55;;;;;;;6.82;1.70;;;;;;;9.66;100.00;98493.84;15274686;19;20018;-55
2022/11/05 11:03:43;;;;;;;7.05;2.00;;;;;;;9.90;100.00;98501.28;15275113;19;20471;-55
2022/11/05 11:09:19;;;;;;;7.00;2.10;;;;;;;9.67;100.00;98507.16;15276591;19;20002;-57
2022/11/05 11:14:43;;;;;;;7.55;1.80;;;;;;;9.47;100.00;98506.44;15270940;19;20019;-57
2022/11/05 11:20:33;;;;;;;7.97;2.00;;;;;;;9.19;100.00;98502.94;15277218;19;20368;-58
2022/11/05 11:26:00;;;;;;;8.57;1.95;;;;;;;9.04;100.00;98514.22;15269259;19;20039;-56
2022/11/05 11:31:27;;;;;;;7.72;2.08;;;;;;;8.98;100.00;98519.34;15274470;19;20051;-50
2022/11/05 11:36:56;;;;;;;6.95;2.03;;;;;;;8.87;100.00;98520.34;15273856;19;20431;-55
2022/11/05 11:42:27;;;;;;;8.77;2.05;;;;;;;9.10;100.00;98516.28;15274078;19;20504;-56
2022/11/05 11:47:55;;;;;;;7.68;1.83;;;;;;;9.36;100.00;98512.03;15271224;19;20014;-57
2022/11/05 11:53:36;;;;;;;6.18;1.50;;;;;;;9.56;100.00;98500.16;15274433;19;20018;-53
2022/11/05 11:59:02;;;;;;;4.87;1.60;;;;;;;9.68;100.00;98490.00;15265213;19;20018;-61
2022/11/05 12:04:53;;;;;;;8.70;1.50;;;;;;;9.72;100.00;98487.84;15263977;19;20022;-56
2022/11/05 12:10:31;;;;;;;5.97;1.47;;;;;;;9.93;100.00;98494.78;15269249;19;20022;-64
2022/11/05 12:15:58;;;;;;;8.38;1.58;;;;;;;9.96;100.00;98487.22;15268721;19;20051;-62
2022/11/05 12:21:31;;;;;;;7.85;1.50;;;;;;;10.09;100.00;98483.28;15264415;19;20014;-63
2022/11/05 12:27:25;;;;;;;6.15;1.30;;;;;;;10.22;100.00;98496.31;15274114;19;20066;-62
2022/11/05 12:33:07;;;;;;;6.07;1.33;;;;;;;10.51;100.00;98487.13;15269785;19;20014;-60
2022/11/05 12:38:57;;;;;;;5.25;1.60;;;;;;;10.58;100.00;98494.44;15267094;19;20029;-63
2022/11/05 12:44:36;;;;;;;6.05;1.35;;;;;;;10.34;100.00;98497.75;15270719;19;20015;-62
2022/11/05 12:50:12;;;;;;;6.38;1.67;;;;;;;10.28;100.00;98503.78;15268046;19;20605;-65
2022/11/05 12:55:40;;;;;;;6.32;1.52;;;;;;;10.03;100.00;98498.22;15261858;19;20043;-62
2022/11/05 13:01:21;;;;;;;5.32;1.38;;;;;;;9.87;100.00;98504.31;15265390;19;20011;-65
2022/11/05 13:06:51;;;;;;;4.95;1.70;;;;;;;9.74;100.00;98499.31;15270016;19;20053;-65
2022/11/05 13:12:19;;;;;;;3.78;1.50;;;;;;;9.63;100.00;98496.84;15265335;19;20014;-65
2022/11/05 13:17:55;;;;;;;4.93;1.50;;;;;;;9.72;100.00;98498.59;15266897;19;20412;-62
2022/11/05 13:23:25;;;;;;;5.40;1.60;;;;;;;9.96;100.00;98505.22;15266030;19;20028;-65
2022/11/05 13:28:57;;;;;;;4.35;1.48;;;;;;;10.24;100.00;98503.25;15266821;19;20086;-65
2022/11/05 13:34:24;;;;;;;7.10;1.70;;;;;;;10.39;100.00;98500.88;15269024;19;20028;-61
2022/11/05 13:39:58;;;;;;;3.38;1.23;;;;;;;10.23;100.00;98501.53;15267085;19;20026;-63
2022/11/05 13:45:54;;;;;;;6.22;1.40;;;;;;;9.96;100.00;98510.59;15267794;19;20018;-60
2022/11/05 13:51:38;;;;;;;5.07;1.40;;;;;;;9.93;100.00;98511.75;15264648;19;20022;-62
2022/11/05 13:57:17;;;;;;;4.95;1.40;;;;;;;9.92;100.00;98510.06;15260177;19;20475;-63
2022/11/05 14:02:51;;;;;;;3.30;1.10;;;;;;;9.78;100.00;98516.84;15264360;19;20363;-62
2022/11/05 14:08:23;;;;;;;3.80;1.10;;;;;;;9.93;100.00;98527.06;15276639;19;20031;-61
2022/11/05 14:13:50;;;;;;;4.18;1.27;;;;;;;10.15;100.00;98518.50;15280672;19;20349;-65
2022/11/05 14:19:34;;;;;;;4.40;1.48;;;;;;;10.39;100.00;98510.78;15276604;19;20010;-62
2022/11/05 14:25:01;;;;;;;3.47;1.10;;;;;;;10.61;100.00;98509.41;15280430;19;20393;-62
2022/11/05 14:30:45;;;;;;;4.82;1.30;;;;;;;10.75;100.00;98506.13;15270095;19;20014;-59
2022/11/05 14:36:36;;;;;;;3.85;1.30;;;;;;;10.83;100.00;98517.94;15278137;19;20018;-61
2022/11/05 14:42:15;;;;;;;6.83;2.97;;;;;;;10.82;100.00;98505.47;15273369;19;20031;-60
2022/11/05 14:47:43;;;;;;;6.55;4.32;;;;;;;10.82;100.00;98524.34;15280412;19;20409;-62
2022/11/05 14:53:25;;;;;;;5.45;2.00;;;;;;;10.79;100.00;98517.44;15275348;19;20018;-58
2022/11/05 14:58:54;;;;;;;5.65;1.45;;;;;;;10.78;100.00;98524.66;15273183;19;20681;-58
2022/11/05 15:04:26;;;;;;;3.88;1.25;;;;;;;10.72;100.00;98522.63;15273659;19;20519;-60
2022/11/05 15:09:54;;;;;;;4.18;1.35;;;;;;;10.69;100.00;98530.19;15275358;19;20023;-61
2022/11/05 15:15:33;;;;;;;3.65;1.30;;;;;;;10.54;100.00;98524.50;15276388;19;20022;-62
2022/11/05 15:21:03;;;;;;;3.30;1.30;;;;;;;10.37;100.00;98527.09;15269332;19;20024;-63
2022/11/05 15:26:38;;;;;;;3.92;1.20;;;;;;;10.18;100.00;98542.41;15276738;19;20051;-62
2022/11/05 15:32:06;;;;;;;4.80;1.48;;;;;;;9.96;100.00;98538.38;15269759;19;20018;-61
2022/11/05 15:37:37;;;;;;;4.93;1.35;;;;;;;9.71;100.00;98539.97;14761703;19;9999954;-63
2022/11/05 15:43:18;;;;;;;4.22;1.40;;;;;;;9.47;100.00;98554.84;15275919;19;20602;-59
2022/11/05 15:48:48;;;;;;;5.53;1.70;;;;;;;9.24;100.00;98566.00;15271818;19;20059;-66
2022/11/05 15:54:22;;;;;;;6.18;2.10;;;;;;;9.03;100.00;98562.72;15272621;19;20022;-58
2022/11/05 15:59:47;;;;;;;4.97;1.88;;;;;;;8.82;100.00;98555.72;15270483;19;20081;-60
2022/11/05 16:05:17;;;;;;;6.85;2.42;;;;;;;8.63;100.00;98562.88;15269389;19;20022;-57
2022/11/05 16:10:45;;;;;;;4.38;1.77;;;;;;;8.51;100.00;98563.16;15271499;19;20043;-60
2022/11/05 16:16:26;;;;;;;6.25;1.90;;;;;;;8.37;100.00;98577.84;15271107;19;20018;-61
2022/11/05 16:22:03;;;;;;;5.63;1.67;;;;;;;8.24;100.00;98581.69;15268413;19;20818;-56
2022/11/05 16:27:28;;;;;;;4.47;1.95;;;;;;;8.11;100.00;98578.44;15269248;19;20035;-59
2022/11/05 16:32:52;;;;;;;6.63;2.00;;;;;;;7.97;100.00;98585.91;15269155;19;20017;-62
2022/11/05 16:38:21;;;;;;;6.80;2.45;;;;;;;7.84;100.00;98583.53;15261130;19;20495;-58
2022/11/05 16:43:45;;;;;;;8.98;2.88;;;;;;;7.73;100.00;98594.38;15270708;19;20745;-67
2022/11/05 16:49:12;;;;;;;8.25;3.13;;;;;;;7.64;100.00;98597.91;15268357;19;20882;-60
2022/11/05 16:54:39;;;;;;;5.45;2.45;;;;;;;7.52;100.00;98606.06;15270754;19;20021;-61
2022/11/05 17:00:05;;;;;;;6.32;2.30;;;;;;;7.39;100.00;98600.94;15264927;19;20014;-60
2022/11/05 17:05:32;;;;;;;7.32;3.10;;;;;;;7.28;100.00;98613.59;15269691;19;20018;-58
2022/11/05 17:11:00;;;;;;;6.15;2.30;;;;;;;7.23;100.00;98628.25;15263397;19;20018;-66
2022/11/05 17:16:26;;;;;;;7.28;2.15;;;;;;;7.16;100.00;98631.59;15268843;19;20025;-63
2022/11/05 17:21:52;;;;;;;6.57;2.50;;;;;;;7.05;100.00;98636.06;15264064;19;20037;-62
2022/11/05 17:27:20;;;;;;;5.57;2.17;;;;;;;6.96;100.00;98642.22;15267944;19;20015;-67
2022/11/05 17:32:45;;;;;;;5.88;2.13;;;;;;;6.90;100.00;98650.78;15267231;19;20090;-62
2022/11/05 17:38:09;;;;;;;6.22;2.00;;;;;;;6.85;100.00;98653.00;15267132;19;20024;-60
2022/11/05 17:43:37;;;;;;;6.50;2.20;;;;;;;6.81;100.00;98662.28;15236923;19;20392;-66
2022/11/05 17:49:01;;;;;;;6.47;2.30;;;;;;;6.72;100.00;98662.09;15266194;19;20479;-59
2022/11/05 17:54:26;;;;;;;5.35;2.10;;;;;;;6.66;100.00;98672.47;15268046;19;20494;-61
2022/11/05 17:59:53;;;;;;;6.00;2.42;;;;;;;6.55;100.00;98670.69;15263262;19;20019;-62
2022/11/05 18:05:21;;;;;;;6.00;2.78;;;;;;;6.46;100.00;98673.19;15267452;19;20040;-63
2022/11/05 18:10:46;;;;;;;5.40;2.45;;;;;;;6.34;100.00;98668.84;15264398;19;20040;-62
2022/11/05 18:16:14;;;;;;;7.03;2.75;;;;;;;6.25;100.00;98685.69;15258501;19;20031;-60
2022/11/05 18:21:39;;;;;;;7.07;2.90;;;;;;;6.12;100.00;98689.38;15259824;19;20026;-66
2022/11/05 18:27:04;;;;;;;7.82;2.85;;;;;;;6.01;100.00;98695.59;15263857;19;20031;-63
2022/11/05 18:32:31;;;;;;;5.93;2.50;;;;;;;5.93;100.00;98695.34;15260340;19;20014;-64
2022/11/05 18:37:56;;;;;;;6.15;2.67;;;;;;;5.83;100.00;98699.75;15264402;19;20094;-63
2022/11/05 18:43:21;;;;;;;6.22;2.60;;;;;;;5.76;100.00;98691.34;15260524;19;20011;-63
2022/11/05 18:48:49;;;;;;;7.57;3.38;;;;;;;5.69;100.00;98690.16;15258083;19;20467;-64
2022/11/05 18:54:14;;;;;;;6.15;3.08;;;;;;;5.60;100.00;98686.41;15272587;19;20014;-58
2022/11/05 18:59:40;;;;;;;5.05;2.60;;;;;;;5.53;100.00;98691.38;15267910;19;20035;-62
2022/11/05 19:05:07;;;;;;;6.38;2.90;;;;;;;5.44;100.00;98686.78;15277055;19;20018;-63
2022/11/05 19:10:50;;;;;;;7.33;2.80;;;;;;;5.37;100.00;98677.53;15270914;19;20042;-65
2022/11/05 19:16:17;;;;;;;7.55;2.70;;;;;;;5.30;100.00;98681.69;15275119;19;20411;-57
2022/11/05 19:21:45;;;;;;;6.30;2.80;;;;;;;5.24;100.00;98681.19;15267814;19;20017;-61
2022/11/05 19:27:11;;;;;;;6.50;2.83;;;;;;;5.22;100.00;98693.81;15275940;19;20387;-61
2022/11/05 19:32:36;;;;;;;6.30;2.70;;;;;;;5.22;100.00;98692.97;15271620;19;20017;-62
2022/11/05 19:38:10;;;;;;;8.02;3.00;;;;;;;5.19;100.00;98693.19;15270807;19;20015;-64
2022/11/05 19:43:35;;;;;;;5.00;2.70;;;;;;;5.17;100.00;98685.31;15270249;19;20372;-63
2022/11/05 19:49:00;;;;;;;10.00;2.97;;;;;;;5.17;100.00;98701.34;15273093;19;20352;-60
2022/11/05 19:54:28;;;;;;;6.70;2.50;;;;;;;5.20;100.00;98703.78;15269409;19;20019;-60
2022/11/05 19:59:52;;;;;;;5.28;2.65;;;;;;;5.16;100.00;98710.31;15272218;19;20073;-58
2022/11/05 20:05:20;;;;;;;8.43;2.80;;;;;;;5.12;100.00;98711.53;15274179;19;20015;-61
2022/11/05 20:10:47;;;;;;;6.70;2.80;;;;;;;5.09;100.00;98720.63;15271169;19;20018;-61
2022/11/05 20:16:22;;;;;;;6.30;2.78;;;;;;;5.09;100.00;98717.13;15274887;19;20097;-65
2022/11/05 20:21:46;;;;;;;5.75;2.78;;;;;;;5.10;100.00;98724.16;15270794;19;20471;-62
2022/11/05 20:27:14;;;;;;;6.55;2.63;;;;;;;5.12;100.00;98732.03;15268308;19;20479;-62
2022/11/05 20:32:39;;;;;;;4.05;2.30;;;;;;;5.14;100.00;98749.66;15274146;19;20082;-63
2022/11/05 20:38:04;;;;;;;4.68;2.40;;;;;;;5.12;100.00;98740.91;15271276;19;20020;-60
2022/11/05 20:43:33;;;;;;;5.13;2.58;;;;;;;5.06;100.00;98738.72;15271183;19;20025;-61
2022/11/05 20:48:58;;;;;;;7.13;2.30;;;;;;;5.03;100.00;98736.28;15267490;19;20452;-60
2022/11/05 20:54:23;;;;;;;4.97;2.22;;;;;;;5.03;100.00;98729.13;15268497;19;20038;-62
2022/11/05 20:59:51;;;;;;;3.10;2.08;;;;;;;5.02;100.00;98737.25;15259393;19;20014;-60
2022/11/05 21:05:15;;;;;;;5.55;2.40;;;;;;;4.97;100.00;98742.94;15267937;19;20026;-61
2022/11/05 21:10:40;;;;;;;4.78;2.38;;;;;;;4.86;100.00;98745.56;15266482;19;20024;-62
2022/11/05 21:16:14;;;;;;;4.75;2.20;;;;;;;4.83;100.00;98749.34;15268827;19;20460;-60
2022/11/05 21:21:39;;;;;;;5.60;2.37;;;;;;;4.81;100.00;98759.28;15264193;19;20022;-61
2022/11/05 21:27:03;;;;;;;4.55;2.30;;;;;;;4.75;100.00;98759.75;15270590;19;20026;-62
2022/11/05 21:32:31;;;;;;;6.72;2.72;;;;;;;4.71;100.00;98753.78;15259786;19;20022;-61
2022/11/05 21:37:55;;;;;;;5.75;2.90;;;;;;;4.67;100.00;98756.78;15268508;19;20014;-61
2022/11/05 21:43:20;;;;;;;5.32;3.05;;;;;;;4.62;100.00;98757.13;15268802;19;20021;-61
2022/11/05 21:48:48;;;;;;;6.88;3.35;;;;;;;4.56;100.00;98761.13;15267299;19;20019;-61
2022/11/05 21:59:50;;;;;;;5.63;3.13;;;;;;;4.44;100.00;98754.03;15265106;19;20015;-61
2022/11/05 22:05:18;;;;;;;5.60;3.10;;;;;;;4.38;100.00;98744.66;15266126;19;20071;-62
2022/11/05 22:10:42;;;;;;;6.38;2.60;;;;;;;4.36;100.00;98743.09;15265778;19;20014;-55
2022/11/05 22:16:08;;;;;;;5.95;2.92;;;;;;;4.35;100.00;98738.72;15265843;19;20019;-63
2022/11/05 22:21:36;;;;;;;6.93;2.90;;;;;;;4.32;100.00;98740.63;15263357;19;20026;-62
2022/11/05 22:27:03;;;;;;;5.72;2.70;;;;;;;4.29;100.00;98730.19;15274631;19;20010;-62
2022/11/05 22:32:27;;;;;;;4.47;2.83;;;;;;;4.26;100.00;98741.09;15273727;19;20026;-62
2022/11/05 22:37:55;;;;;;;5.40;3.00;;;;;;;4.27;100.00;98737.47;15283310;19;20035;-61
2022/11/05 22:43:19;;;;;;;6.35;3.25;;;;;;;4.29;100.00;98742.69;15280284;19;20018;-63
2022/11/05 22:48:51;;;;;;;6.38;3.22;;;;;;;4.32;100.00;98747.81;15283800;19;20022;-61
2022/11/05 22:54:19;;;;;;;6.85;3.30;;;;;;;4.35;100.00;98762.72;15280719;19;20648;-63
2022/11/05 22:59:43;;;;;;;6.88;3.35;;;;;;;4.36;100.00;98743.91;15280116;19;20018;-62
2022/11/05 23:05:09;;;;;;;7.22;3.35;;;;;;;4.43;100.00;98755.00;15277586;19;20025;-63
2022/11/05 23:27:35;;;;;;;5.88;3.40;;;;;;;4.73;100.00;98745.66;15282271;19;20015;-60
2022/11/05 23:33:01;;;;;;;6.05;3.35;;;;;;;4.74;100.00;98744.69;15281069;19;20023;-61
2022/11/05 23:38:37;;;;;;;6.07;2.92;;;;;;;4.77;100.00;98737.31;15272613;19;20021;-61
2022/11/05 23:49:42;;;;;;;7.22;3.58;;;;;;;4.80;100.00;98727.38;15280005;19;20471;-61
2022/11/05 23:55:07;;;;;;;6.60;3.67;;;;;;;4.72;100.00;98733.28;15279668;19;20539;-60
